Flight Track Log - Related Links

Times and Time Zones

All times are in EDT time to prevent confusion due to time zone crossing. See the TCF9000 flight status page for this flight to view local times or setup timezone preferences in your user account.

Time Position Orientation Groundspeed Altitude Reporting Facility
EDT Latitude Longitude Course Direction KTS MPH feet Rate Location/Type
Tue 05:52:21 PM 41.9167 -87.8667 94° East 228 262 3,700  Level Chicago TRACON
Tue 05:53:21 PM 41.8667 -87.7833 129° Southeast 285 328 5,700 2,124 Climbing Chicago TRACON
Tue 05:54:14 PM 41.8128 -87.7186 138° Southeast 292 336 7,700 1,722 Climbing Chicago Center
Tue 05:55:16 PM 41.7750 -87.5992 113° Southeast 319 367 9,000 629 Climbing Chicago Center
Tue 05:56:18 PM 41.7575 -87.4806 101° East 331 381 9,000  Level Chicago Center
Tue 05:57:00 PM 41.9544 -87.3918 94° East  Level FlightAware Approximate
Tue 05:57:20 PM 41.7508 -87.3581 94° East 331 381 9,000  Level Chicago Center
Tue 05:58:22 PM 41.7431 -87.2289 95° East 325 374 9,000  Level Chicago Center
Tue 05:59:24 PM 41.7506 -87.1067 85° East 329 379 9,000 48 Level Chicago Center
Tue 06:00:27 PM 41.7575 -86.9742 86° East 329 379 9,100  Climbing Chicago Center
Tue 06:01:29 PM 41.7650 -86.8522 85° East 329 379 9,000 -48 Descending Chicago Center
Tue 06:02:31 PM 41.7342 -86.7306 109° East 326 375 9,000  Level Chicago Center
Tue 06:03:33 PM 41.6897 -86.6406 123° Southeast 325 374 9,000  Level Chicago Center
Tue 06:04:35 PM 41.6414 -86.5408 123° Southeast 323 372 9,000  Level Chicago Center
Tue 06:05:37 PM 41.5847 -86.4211 122° Southeast 322 371 9,000  Level Chicago Center
Tue 06:06:39 PM 41.5361 -86.3217 123° Southeast 322 371 9,000  Level Chicago Center
Tue 06:07:42 PM 41.4878 -86.2217 123° Southeast 321 369 9,000  Level Chicago Center
Tue 06:08:44 PM 41.4389 -86.1222 123° Southeast 322 371 9,000  Level Chicago Center
Tue 06:09:46 PM 41.3892 -86.0192 123° Southeast 329 379 9,000  Level Chicago Center
Tue 06:10:48 PM 41.3286 -85.8958 123° Southeast 331 381 9,000  Level Chicago Center
Tue 06:11:50 PM 41.2786 -85.7947 123° Southeast 331 381 9,000  Level Chicago Center
Tue 06:12:52 PM 41.2286 -85.6933 123° Southeast 330 380 9,000  Level Chicago Center
Tue 06:13:54 PM 41.1806 -85.5919 122° Southeast 329 379 9,000  Level Chicago Center
Tue 06:14:56 PM 41.1314 -85.4942 124° Southeast 325 374 9,000  Level Chicago Center
Tue 06:15:59 PM 41.0719 -85.3728 123° Southeast 325 374 9,000  Level Chicago Center
Tue 06:17:01 PM 41.0219 -85.2714 123° Southeast 330 380 9,000  Level Chicago Center
Tue 06:18:03 PM 40.9739 -85.1719 123° Southeast 329 379 9,000  Level Chicago Center
Tue 06:19:05 PM 40.9403 -85.0581 111° Southeast 330 380 9,000  Level Chicago Center
Tue 06:20:07 PM 40.9056 -84.9467 112° Southeast 330 380 9,000  Level Chicago Center
Tue 06:21:09 PM 40.8642 -84.8125 112° Southeast 330 380 9,000  Level Chicago Center
Tue 06:22:11 PM 40.8292 -84.7008 112° Southeast 330 380 9,000  Level Chicago Center
Tue 06:23:13 PM 40.7950 -84.5886 112° Southeast 330 380 9,000  Level Chicago Center
Tue 06:24:29 PM 40.7492 -84.4458 113° Southeast 330 380 9,000  Level Indianapolis Center
Tue 06:25:31 PM 40.7156 -84.3367 112° Southeast 329 379 9,000  Level Indianapolis Center
Tue 06:26:33 PM 40.6806 -84.2281 113° Southeast 326 375 9,000  Level Indianapolis Center
Tue 06:27:34 PM 40.6475 -84.1200 112° Southeast 321 369 9,000  Level Indianapolis Center
Tue 06:28:36 PM 40.6125 -84.0119 113° Southeast 321 369 9,000  Level Indianapolis Center
Tue 06:29:38 PM 40.5789 -83.9036 112° Southeast 321 369 9,000  Level Indianapolis Center
Tue 06:30:40 PM 40.5375 -83.7725 113° Southeast 321 369 9,000  Level Indianapolis Center
Tue 06:31:07 PM 40.5194 -83.7231 116° Southeast 322 371 9,000  Level Indianapolis Center
Tue 06:31:42 PM 40.5033 -83.6644 110° East 321 369 9,000  Level Indianapolis Center
Tue 06:31:56 PM 40.4925 -83.6358 116° Southeast 322 371 9,000  Level Indianapolis Center
Tue 06:32:44 PM 40.4672 -83.5564 113° Southeast 321 369 9,000  Level Indianapolis Center
Tue 06:33:03 PM 40.4539 -83.5164 114° Southeast 324 373 9,000  Level Indianapolis Center
Tue 06:33:46 PM 40.4322 -83.4464 112° Southeast 322 371 9,000  Level Indianapolis Center
Tue 06:34:04 PM 40.4186 -83.4058 114° Southeast 323 372 9,000  Level Indianapolis Center
Tue 06:34:47 PM 40.3942 -83.3406 116° Southeast 322 371 9,000  Level Indianapolis Center
Tue 06:35:05 PM 40.3714 -83.3100 134° Southeast 306 352 9,000  Level Indianapolis Center
Tue 06:35:49 PM 40.3394 -83.2531 126° Southeast 315 362 9,000  Level Indianapolis Center
Tue 06:36:06 PM 40.3153 -83.2156 130° Southeast 314 361 9,000  Level Indianapolis Center
Tue 06:37:07 PM 40.2611 -83.1242 128° Southeast 317 365 9,000 -393 Level Indianapolis Center
Tue 06:37:53 PM 40.2311 -83.0731 128° Southeast 314 361 8,300 -1,082 Descending Indianapolis Center
Tue 06:38:08 PM 40.2067 -83.0358 131° Southeast 312 359 7,900 -1,258 Descending Indianapolis Center
Tue 06:38:55 PM 40.1653 -82.9697 129° Southeast 313 360 7,000 -1,200 Descending Indianapolis Center
Tue 06:39:08 PM 40.1514 -82.9531 137° Southeast 300 345 6,700 -1,258 Descending Indianapolis Center
Tue 06:39:57 PM 40.1253 -82.8822 116° Southeast 298 343 5,700 -1,180 Descending Indianapolis Center
Tue 06:40:09 PM 40.1206 -82.8578 104° East 290 334 5,500 -1,355 Descending Indianapolis Center
Tue 06:40:59 PM 40.1083 -82.7775 101° East 297 342 4,300 -1,475 Descending Indianapolis Center
Tue 06:41:10 PM 40.1025 -82.7564 110° East 285 328 4,000 -290 Descending Indianapolis Center
Tue 06:42:01 PM 40.0769 -82.6953 119° Southeast 270 311 4,000 -98 Level Indianapolis Center
Tue 06:42:11 PM 40.0681 -82.6772 123° Southeast 230 265 3,900 -871 Descending Indianapolis Center
Tue 06:43:03 PM 40.0281 -82.6544 156° South 255 293 3,100 -446 Descending Indianapolis Center
Tue 06:44:12 PM 39.9833 -82.7075 222° Southwest 174 200 3,000 -244 Descending Indianapolis Center
Tue 06:45:06 PM 39.9831 -82.7511 270° West 189 217 2,600 -724 Descending Indianapolis Center
Tue 06:46:08 PM 39.9889 -82.8258 276° West 156 180 1,600 -780 Descending Indianapolis Center
Tue 06:47:09 PM 39.9914 -82.8672 275° West 110 127 1,000 -590 Descending Indianapolis Center

Login

Don't have an account? Register now (free) for customized features, flight alerts, and more!